Time,TemperatureF,DewpointF,PressureIn,WindDirection,WindDirectionDegrees,WindSpeedMPH,WindSpeedGustMPH,Humidity,HourlyPrecipIn,Conditions,Clouds,dailyrainin,SoftwareType,DateUTC
2013-04-16 00:03:00,60.0,48.0,-100.00,SSW,194,2.0,17.0,67,0.00,,,-99.99,,2013-04-16 04:03:00,
2013-04-16 00:13:00,60.0,48.0,-100.00,South,173,2.0,17.0,67,0.00,,,-99.99,,2013-04-16 04:13:00,
2013-04-16 00:23:00,60.0,48.0,-100.00,South,184,2.0,17.0,67,0.00,,,-99.99,,2013-04-16 04:23:00,
2013-04-16 00:33:00,59.0,48.0,-100.00,South,173,2.0,2.0,67,0.00,,,-99.99,,2013-04-16 04:33:00,
2013-04-16 00:42:00,58.0,46.0,-100.00,SSE,148,2.0,2.0,68,0.00,,,-99.99,,2013-04-16 04:42:00,
2013-04-16 00:52:00,59.0,48.0,-100.00,South,175,4.0,4.0,67,0.00,,,-99.99,,2013-04-16 04:52:00,
2013-04-16 01:03:00,59.0,46.0,-100.00,South,176,5.0,6.0,67,0.00,,,-99.99,,2013-04-16 05:03:00,
2013-04-16 01:12:00,59.0,46.0,-100.00,SSE,165,4.0,6.0,67,0.00,,,-99.99,,2013-04-16 05:12:00,
2013-04-16 01:22:00,59.0,48.0,-100.00,SSE,152,5.0,6.0,68,0.00,,,-99.99,,2013-04-16 05:22:00,
2013-04-16 01:32:00,59.0,48.0,-100.00,SSW,206,6.0,10.0,67,0.00,,,-99.99,,2013-04-16 05:32:00,
2013-04-16 01:42:00,59.0,46.0,-100.00,South,184,6.0,10.0,67,0.00,,,-99.99,,2013-04-16 05:42:00,
2013-04-16 01:52:00,60.0,48.0,-100.00,South,187,5.0,10.0,67,0.00,,,-99.99,,2013-04-16 05:52:00,
2013-04-16 02:02:00,59.0,46.0,-100.00,SSE,153,6.0,10.0,66,0.00,,,-99.99,,2013-04-16 06:02:00,
2013-04-16 02:12:00,60.0,46.0,-100.00,SSE,159,6.0,10.0,66,0.00,,,-99.99,,2013-04-16 06:12:00,
2013-04-16 02:22:00,59.0,46.0,-100.00,SSE,160,6.0,10.0,66,0.00,,,-99.99,,2013-04-16 06:22:00,
2013-04-16 02:32:00,59.0,46.0,-100.00,SSE,148,6.0,10.0,66,0.00,,,-99.99,,2013-04-16 06:32:00,
2013-04-16 02:42:00,60.0,46.0,-100.00,South,182,7.0,10.0,64,0.00,,,-99.99,,2013-04-16 06:42:00,
2013-04-16 02:52:00,60.0,46.0,-100.00,South,169,6.0,10.0,66,0.00,,,-99.99,,2013-04-16 06:52:00,
2013-04-16 03:02:00,59.0,46.0,-100.00,South,190,6.0,10.0,66,0.00,,,-99.99,,2013-04-16 07:02:00,
2013-04-16 03:12:00,59.0,46.0,-100.00,SSW,203,8.0,10.0,64,0.00,,,-99.99,,2013-04-16 07:12:00,
2013-04-16 03:22:00,59.0,46.0,-100.00,SSE,156,7.0,10.0,66,0.00,,,-99.99,,2013-04-16 07:22:00,
2013-04-16 03:32:00,58.0,46.0,-100.00,SE,146,7.0,10.0,66,0.00,,,-99.99,,2013-04-16 07:32:00,
2013-04-16 03:42:00,59.0,46.0,-100.00,South,183,9.0,12.0,66,0.00,,,-99.99,,2013-04-16 07:42:00,
2013-04-16 03:53:00,59.0,46.0,-100.00,South,187,7.0,12.0,67,0.00,,,-99.99,,2013-04-16 07:53:00,
2013-04-16 04:02:00,59.0,46.0,-100.00,SSE,166,9.0,12.0,66,0.00,,,-99.99,,2013-04-16 08:02:00,
2013-04-16 04:12:00,58.0,46.0,-100.00,SE,141,7.0,12.0,67,0.00,,,-99.99,,2013-04-16 08:12:00,
2013-04-16 04:22:00,58.0,46.0,-100.00,SSE,160,6.0,12.0,68,0.00,,,-99.99,,2013-04-16 08:22:00,
2013-04-16 04:32:00,58.0,46.0,-100.00,SSE,166,6.0,12.0,68,0.00,,,-99.99,,2013-04-16 08:32:00,
2013-04-16 04:42:00,58.0,46.0,-100.00,South,175,6.0,12.0,68,0.00,,,-99.99,,2013-04-16 08:42:00,
2013-04-16 04:52:00,58.0,46.0,-100.00,ESE,120,7.0,12.0,68,0.00,,,-99.99,,2013-04-16 08:52:00,
2013-04-16 05:02:00,58.0,46.0,-100.00,South,170,7.0,12.0,68,0.00,,,-99.99,,2013-04-16 09:02:00,
2013-04-16 05:12:00,58.0,46.0,-100.00,SE,146,7.0,12.0,69,0.00,,,-99.99,,2013-04-16 09:12:00,
2013-04-16 05:22:00,58.0,46.0,-100.00,SSE,152,6.0,12.0,68,0.00,,,-99.99,,2013-04-16 09:22:00,
2013-04-16 05:33:00,58.0,46.0,-100.00,South,177,7.0,12.0,69,0.00,,,-99.99,,2013-04-16 09:33:00,
2013-04-16 05:43:00,59.0,46.0,-100.00,SSE,152,7.0,12.0,68,0.00,,,-99.99,,2013-04-16 09:43:00,
2013-04-16 05:52:00,58.0,48.0,-100.00,South,176,9.0,12.0,69,0.00,,,-99.99,,2013-04-16 09:52:00,
2013-04-16 06:03:00,58.0,46.0,-100.00,SSW,196,9.0,12.0,69,0.00,,,-99.99,,2013-04-16 10:03:00,
2013-04-16 06:13:00,58.0,46.0,-100.00,South,184,10.0,14.0,69,0.00,,,-99.99,,2013-04-16 10:13:00,
2013-04-16 06:23:00,59.0,48.0,-100.00,South,183,6.0,14.0,69,0.00,,,-99.99,,2013-04-16 10:23:00,
2013-04-16 06:33:00,59.0,48.0,-100.00,SSE,163,7.0,14.0,71,0.00,,,-99.99,,2013-04-16 10:33:00,
2013-04-16 06:42:00,58.0,48.0,-100.00,SSW,193,5.0,14.0,71,0.00,,,-99.99,,2013-04-16 10:42:00,
2013-04-16 06:52:00,58.0,48.0,-100.00,South,187,6.0,14.0,71,0.00,,,-99.99,,2013-04-16 10:52:00,
2013-04-16 07:03:00,58.0,48.0,-100.00,SE,146,6.0,14.0,71,0.00,,,-99.99,,2013-04-16 11:03:00,
2013-04-16 07:12:00,56.0,46.0,-100.00,SW,223,7.0,14.0,72,0.00,,,-99.99,,2013-04-16 11:12:00,
2013-04-16 07:22:00,58.0,48.0,-100.00,SSW,196,6.0,14.0,72,0.00,,,-99.99,,2013-04-16 11:22:00,
2013-04-16 07:32:00,58.0,48.0,-100.00,SSE,151,4.0,14.0,72,0.00,,,-99.99,,2013-04-16 11:32:00,
2013-04-16 07:42:00,58.0,48.0,-100.00,South,186,8.0,14.0,72,0.00,,,-99.99,,2013-04-16 11:42:00,
2013-04-16 07:52:00,58.0,48.0,-100.00,SE,136,6.0,14.0,72,0.00,,,-99.99,,2013-04-16 11:52:00,
2013-04-16 08:02:00,57.0,48.0,-100.00,SW,230,7.0,14.0,75,4.53,,,-99.99,,2013-04-16 12:02:00,
2013-04-16 08:12:00,56.0,50.0,-100.00,ESE,107,6.0,14.0,80,2.83,,,-99.99,,2013-04-16 12:12:00,
2013-04-16 08:22:00,56.0,50.0,-100.00,SSE,162,7.0,14.0,80,4.53,,,-99.99,,2013-04-16 12:22:00,
2013-04-16 08:32:00,57.0,50.0,-100.00,NNW,331,6.0,14.0,82,0.00,,,-99.99,,2013-04-16 12:32:00,
2013-04-16 08:42:00,57.0,50.0,-100.00,South,170,6.0,14.0,81,0.00,,,-99.99,,2013-04-16 12:42:00,
2013-04-16 08:52:00,56.0,50.0,-100.00,SSW,203,4.0,14.0,85,10.79,,,-99.99,,2013-04-16 12:52:00,
2013-04-16 09:02:00,56.0,52.0,-100.00,South,186,2.0,14.0,86,0.00,,,-99.99,,2013-04-16 13:02:00,
2013-04-16 09:12:00,56.0,52.0,-100.00,SW,220,4.0,14.0,85,0.00,,,-99.99,,2013-04-16 13:12:00,
2013-04-16 09:22:00,58.0,52.0,-100.00,WSW,247,5.0,14.0,84,-99.99,,,-99.99,,2013-04-16 13:22:00,
2013-04-16 09:32:00,59.0,52.0,-100.00,WNW,297,4.0,14.0,81,0.00,,,-99.99,,2013-04-16 13:32:00,
2013-04-16 09:42:00,59.0,52.0,-100.00,WSW,247,3.0,14.0,80,0.00,,,-99.99,,2013-04-16 13:42:00,
2013-04-16 09:52:00,60.0,52.0,-100.00,West,273,3.0,14.0,78,0.00,,,-99.99,,2013-04-16 13:52:00,
2013-04-16 10:02:00,56.0,52.0,-100.00,WNW,289,2.0,14.0,88,-99.99,,,-99.99,,2013-04-16 14:02:00,
2013-04-16 10:12:00,56.0,52.0,-100.00,WSW,258,1.0,14.0,88,0.00,,,-99.99,,2013-04-16 14:12:00,
2013-04-16 10:22:00,56.0,52.0,-100.00,West,269,1.0,14.0,89,1.14,,,-99.99,,2013-04-16 14:22:00,
2013-04-16 10:32:00,56.0,52.0,-100.00,SSE,163,0.0,14.0,90,18.70,,,-99.99,,2013-04-16 14:32:00,
2013-04-16 10:42:00,56.0,52.0,-100.00,ESE,114,0.0,14.0,91,-99.99,,,-99.99,,2013-04-16 14:42:00,
2013-04-16 10:52:00,56.0,54.0,-100.00,South,183,1.0,14.0,93,10.79,,,-99.99,,2013-04-16 14:52:00,
2013-04-16 11:02:00,57.0,54.0,-100.00,SW,232,1.0,14.0,93,1.14,,,-99.99,,2013-04-16 15:02:00,
2013-04-16 11:12:00,58.0,55.0,-100.00,ESE,118,2.0,14.0,93,9.06,,,-99.99,,2013-04-16 15:12:00,
2013-04-16 11:22:00,58.0,54.0,-100.00,South,177,3.0,14.0,91,2.83,,,-99.99,,2013-04-16 15:22:00,
2013-04-16 11:33:00,59.0,55.0,-100.00,SW,218,2.0,14.0,90,0.00,,,-99.99,,2013-04-16 15:33:00,
2013-04-16 11:43:00,59.0,55.0,-100.00,SW,218,2.0,14.0,90,0.00,,,-99.99,,2013-04-16 15:43:00,
2013-04-16 11:53:00,60.0,55.0,-100.00,SW,224,2.0,14.0,89,0.00,,,-99.99,,2013-04-16 15:53:00,
2013-04-16 12:03:00,61.0,55.0,-100.00,WSW,241,4.0,14.0,88,0.00,,,-99.99,,2013-04-16 16:03:00,
2013-04-16 12:13:00,62.0,55.0,-100.00,West,261,5.0,14.0,85,0.00,,,-99.99,,2013-04-16 16:13:00,
2013-04-16 12:23:00,63.0,55.0,-100.00,SSW,213,6.0,14.0,82,0.00,,,-99.99,,2013-04-16 16:23:00,
2013-04-16 12:32:00,64.0,57.0,-100.00,SSE,152,4.0,14.0,81,0.00,,,-99.99,,2013-04-16 16:32:00,
2013-04-16 12:42:00,64.0,55.0,-100.00,WSW,238,7.0,14.0,78,0.00,,,-99.99,,2013-04-16 16:42:00,
2013-04-16 12:52:00,65.0,55.0,-100.00,SW,227,6.0,14.0,77,0.00,,,-99.99,,2013-04-16 16:52:00,
2013-04-16 13:02:00,67.0,57.0,-100.00,WNW,286,5.0,14.0,75,0.00,,,-99.99,,2013-04-16 17:02:00,
2013-04-16 13:12:00,67.0,57.0,-100.00,SE,139,7.0,14.0,72,0.00,,,-99.99,,2013-04-16 17:12:00,
2013-04-16 13:22:00,67.0,57.0,-100.00,WSW,245,6.0,14.0,72,0.00,,,-99.99,,2013-04-16 17:22:00,
2013-04-16 13:32:00,66.0,55.0,-100.00,SW,227,4.0,14.0,73,0.00,,,-99.99,,2013-04-16 17:32:00,
2013-04-16 13:43:00,66.0,57.0,-100.00,WSW,244,3.0,14.0,75,23.23,,,-99.99,,2013-04-16 17:43:00,
2013-04-16 13:53:00,65.0,57.0,-100.00,West,275,4.0,14.0,78,0.00,,,-99.99,,2013-04-16 17:53:00,
2013-04-16 14:02:00,60.0,54.0,-100.00,NNE,21,3.0,14.0,84,0.00,,,-99.99,,2013-04-16 18:02:00,
2013-04-16 14:12:00,59.0,54.0,-100.00,WNW,286,4.0,14.0,84,0.00,,,-99.99,,2013-04-16 18:12:00,
2013-04-16 14:22:00,58.0,52.0,-100.00,NW,316,2.0,14.0,85,0.00,,,-99.99,,2013-04-16 18:22:00,
2013-04-16 14:32:00,57.0,52.0,-100.00,WSW,241,3.0,14.0,86,0.00,,,-99.99,,2013-04-16 18:32:00,
2013-04-16 14:42:00,56.0,52.0,-100.00,West,268,6.0,14.0,88,0.00,,,-99.99,,2013-04-16 18:42:00,
2013-04-16 14:52:00,56.0,52.0,-100.00,NNW,341,2.0,14.0,88,0.00,,,-99.99,,2013-04-16 18:52:00,
2013-04-16 15:02:00,55.0,50.0,-100.00,NW,314,5.0,14.0,88,0.00,,,-99.99,,2013-04-16 19:02:00,
2013-04-16 15:12:00,56.0,52.0,-100.00,ENE,74,4.0,14.0,88,0.00,,,-99.99,,2013-04-16 19:12:00,
2013-04-16 15:22:00,56.0,52.0,-100.00,West,265,6.0,14.0,86,0.00,,,-99.99,,2013-04-16 19:22:00,
2013-04-16 15:32:00,56.0,52.0,-100.00,West,262,5.0,14.0,86,0.00,,,-99.99,,2013-04-16 19:32:00,
2013-04-16 15:42:00,56.0,52.0,-100.00,WNW,288,4.0,14.0,86,0.00,,,-99.99,,2013-04-16 19:42:00,
2013-04-16 15:52:00,55.0,50.0,-100.00,West,279,4.0,14.0,85,0.00,,,-99.99,,2013-04-16 19:52:00,
2013-04-16 16:02:00,55.0,50.0,-100.00,NW,323,2.0,14.0,84,0.00,,,-99.99,,2013-04-16 20:02:00,
2013-04-16 16:13:00,54.0,48.0,-100.00,NNW,331,1.0,14.0,84,0.00,,,-99.99,,2013-04-16 20:13:00,
2013-04-16 16:22:00,54.0,48.0,-100.00,NNW,344,1.0,14.0,85,0.00,,,-99.99,,2013-04-16 20:22:00,
2013-04-16 16:32:00,53.0,48.0,-100.00,NNE,15,4.0,14.0,85,0.00,,,-99.99,,2013-04-16 20:32:00,
2013-04-16 16:42:00,53.0,48.0,-100.00,NW,312,2.0,14.0,85,0.00,,,-99.99,,2013-04-16 20:42:00,
2013-04-16 16:52:00,51.0,46.0,-100.00,NW,320,4.0,14.0,86,0.00,,,-99.99,,2013-04-16 20:52:00,
2013-04-16 17:02:00,52.0,48.0,-100.00,SE,128,2.0,14.0,88,0.00,,,-99.99,,2013-04-16 21:02:00,
2013-04-16 17:12:00,52.0,46.0,-100.00,NW,307,1.0,14.0,86,0.00,,,-99.99,,2013-04-16 21:12:00,
2013-04-16 17:22:00,52.0,48.0,-100.00,WNW,295,1.0,14.0,88,0.00,,,-99.99,,2013-04-16 21:22:00,
2013-04-16 17:32:00,52.0,48.0,-100.00,WNW,283,2.0,14.0,88,0.00,,,-99.99,,2013-04-16 21:32:00,
2013-04-16 17:43:00,52.0,48.0,-100.00,North,352,1.0,14.0,89,0.00,,,-99.99,,2013-04-16 21:43:00,
2013-04-16 17:53:00,51.0,46.0,-100.00,ENE,67,2.0,14.0,89,4.53,,,-99.99,,2013-04-16 21:53:00,
2013-04-16 18:03:00,51.0,48.0,-100.00,NNW,334,1.0,14.0,90,4.53,,,-99.99,,2013-04-16 22:03:00,
2013-04-16 18:13:00,51.0,48.0,-100.00,West,276,1.0,14.0,90,0.00,,,-99.99,,2013-04-16 22:13:00,
2013-04-16 18:22:00,51.0,48.0,-100.00,SSW,197,2.0,14.0,91,0.00,,,-99.99,,2013-04-16 22:22:00,
2013-04-16 18:33:00,52.0,48.0,-100.00,NNW,341,1.0,14.0,91,0.00,,,-99.99,,2013-04-16 22:33:00,
2013-04-16 18:43:00,51.0,48.0,-100.00,West,268,1.0,14.0,91,0.00,,,-99.99,,2013-04-16 22:43:00,
2013-04-16 18:52:00,52.0,50.0,-100.00,NW,314,0.0,14.0,93,0.00,,,-99.99,,2013-04-16 22:52:00,
2013-04-16 19:02:00,52.0,48.0,-100.00,WNW,286,2.0,14.0,91,0.00,,,-99.99,,2013-04-16 23:02:00,
2013-04-16 19:12:00,52.0,48.0,-100.00,WSW,254,2.0,14.0,91,0.00,,,-99.99,,2013-04-16 23:12:00,
2013-04-16 19:22:00,51.0,48.0,-100.00,SW,223,1.0,14.0,91,0.00,,,-99.99,,2013-04-16 23:22:00,
2013-04-16 19:32:00,52.0,48.0,-100.00,WNW,283,1.0,14.0,91,0.00,,,-99.99,,2013-04-16 23:32:00,
2013-04-16 19:43:00,52.0,48.0,-100.00,WSW,237,1.0,14.0,93,0.00,,,-99.99,,2013-04-16 23:43:00,
2013-04-16 19:52:00,52.0,50.0,-100.00,NW,320,1.0,14.0,93,0.00,,,-99.99,,2013-04-16 23:52:00,
2013-04-16 20:02:00,52.0,48.0,-100.00,WNW,289,0.0,14.0,93,0.00,,,-99.99,,2013-04-17 00:02:00,
2013-04-16 20:12:00,52.0,48.0,-100.00,WSW,241,1.0,14.0,93,0.00,,,-99.99,,2013-04-17 00:12:00,
2013-04-16 20:22:00,53.0,50.0,-100.00,WSW,255,2.0,14.0,93,0.00,,,-99.99,,2013-04-17 00:22:00,
2013-04-16 20:32:00,52.0,48.0,-100.00,SW,235,1.0,14.0,93,0.00,,,-99.99,,2013-04-17 00:32:00,
2013-04-16 20:42:00,51.0,48.0,-100.00,WSW,255,1.0,14.0,93,0.00,,,-99.99,,2013-04-17 00:42:00,
2013-04-16 20:52:00,52.0,48.0,-100.00,WNW,288,1.0,14.0,91,0.00,,,-99.99,,2013-04-17 00:52:00,
2013-04-16 21:02:00,52.0,50.0,-100.00,SW,234,0.0,14.0,93,0.00,,,-99.99,,2013-04-17 01:02:00,
2013-04-16 21:12:00,51.0,48.0,-100.00,SSW,206,0.0,14.0,93,0.00,,,-99.99,,2013-04-17 01:12:00,
2013-04-16 21:22:00,51.0,48.0,-100.00,SW,234,1.0,14.0,93,0.00,,,-99.99,,2013-04-17 01:22:00,
2013-04-16 21:32:00,52.0,48.0,-100.00,WSW,249,0.0,14.0,93,0.00,,,-99.99,,2013-04-17 01:32:00,
2013-04-16 21:42:00,51.0,48.0,-100.00,WSW,258,0.0,14.0,93,0.00,,,-99.99,,2013-04-17 01:42:00,
2013-04-16 21:52:00,51.0,48.0,-100.00,West,275,1.0,14.0,91,0.00,,,-99.99,,2013-04-17 01:52:00,
2013-04-16 22:02:00,52.0,48.0,-100.00,West,262,0.0,14.0,93,0.00,,,-99.99,,2013-04-17 02:02:00,
2013-04-16 22:12:00,51.0,48.0,-100.00,SW,228,1.0,14.0,93,0.00,,,-99.99,,2013-04-17 02:12:00,
2013-04-16 22:22:00,51.0,46.0,-100.00,SE,142,0.0,14.0,91,0.00,,,-99.99,,2013-04-17 02:22:00,
2013-04-16 22:32:00,51.0,48.0,-100.00,SSE,148,0.0,14.0,93,0.00,,,-99.99,,2013-04-17 02:32:00,
2013-04-16 22:42:00,51.0,48.0,-100.00,West,275,0.0,14.0,94,0.00,,,-99.99,,2013-04-17 02:42:00,
2013-04-16 22:52:00,51.0,48.0,-100.00,NE,49,0.0,14.0,93,0.00,,,-99.99,,2013-04-17 02:52:00,
2013-04-16 23:02:00,51.0,48.0,-100.00,ENE,74,1.0,14.0,94,0.00,,,-99.99,,2013-04-17 03:02:00,
2013-04-16 23:12:00,51.0,48.0,-100.00,ESE,103,1.0,14.0,93,0.00,,,-99.99,,2013-04-17 03:12:00,
2013-04-16 23:22:00,51.0,48.0,-100.00,East,96,1.0,14.0,93,0.00,,,-99.99,,2013-04-17 03:22:00,
2013-04-16 23:33:00,51.0,48.0,-100.00,ENE,72,0.0,14.0,94,0.00,,,-99.99,,2013-04-17 03:33:00,
2013-04-16 23:42:00,50.0,48.0,-100.00,NW,326,0.0,14.0,94,0.00,,,-99.99,,2013-04-17 03:42:00,
2013-04-16 23:53:00,51.0,48.0,-100.00,NNE,33,1.0,14.0,93,0.00,,,-99.99,,2013-04-17 03:53:00,